Time;durP1;ratioP1;P1;durP2;ratioP2;P2;SDS_P1;SDS_P2;PMS_P1;PMS_P2;Temp;Humidity;BMP_temperature;BMP_pressure;BME280_temperature;BME280_humidity;BME280_pressure;Samples;Min_cycle;Max_cycle;Signal;HPM_P1;HPM_P2
2022/03/30 00:01:23;;;;;;;9.70;1.85;;;;;;;2.76;100.00;100720.34;5008918;28;20492;-78
2022/03/30 00:03:49;;;;;;;10.43;1.63;;;;;;;2.75;100.00;100713.47;5000107;28;20076;-78
2022/03/30 00:06:15;;;;;;;8.65;1.85;;;;;;;2.71;99.55;100713.69;5010444;28;20128;-79
2022/03/30 00:08:42;;;;;;;9.80;2.20;;;;;;;2.74;99.94;100715.25;4983216;28;20022;-78
2022/03/30 00:11:09;;;;;;;11.75;2.05;;;;;;;2.70;99.94;100706.00;4994754;28;20606;-78
2022/03/30 00:13:36;;;;;;;8.13;1.88;;;;;;;2.75;100.00;100697.94;4979345;28;20059;-77
2022/03/30 00:16:03;;;;;;;12.68;1.92;;;;;;;2.89;100.00;100700.50;4995057;28;20045;-76
2022/03/30 00:18:28;;;;;;;7.40;2.03;;;;;;;2.73;99.78;100683.34;4993480;28;20054;-78
2022/03/30 00:20:54;;;;;;;15.98;2.05;;;;;;;2.77;100.00;100699.53;5010513;28;20041;-76
2022/03/30 00:23:20;;;;;;;15.38;1.95;;;;;;;2.75;100.00;100695.34;4980829;28;20038;-76
2022/03/30 00:25:46;;;;;;;10.52;2.00;;;;;;;2.87;100.00;100686.81;5010402;28;20087;-79
2022/03/30 00:28:11;;;;;;;9.00;1.77;;;;;;;2.89;100.00;100690.94;4993366;28;20520;-76
2022/03/30 00:30:38;;;;;;;11.57;1.95;;;;;;;2.92;100.00;100683.00;4977010;28;20050;-82
2022/03/30 00:33:04;;;;;;;10.50;1.90;;;;;;;2.95;100.00;100681.13;4994012;28;20040;-79
2022/03/30 00:35:30;;;;;;;9.30;1.90;;;;;;;2.99;100.00;100682.59;5010307;28;20038;-78
2022/03/30 00:37:56;;;;;;;15.77;2.20;;;;;;;3.02;100.00;100678.03;4996808;28;20029;-78
2022/03/30 00:40:21;;;;;;;15.45;1.95;;;;;;;2.96;100.00;100672.41;5012837;28;20129;-76
2022/03/30 00:42:47;;;;;;;13.15;2.00;;;;;;;2.93;99.92;100674.28;5013712;28;20051;-77
2022/03/30 00:45:21;;;;;;;13.65;1.90;;;;;;;2.80;100.00;100670.00;5008685;28;20042;-77
2022/03/30 00:47:47;;;;;;;9.65;2.17;;;;;;;2.69;100.00;100653.38;5026657;28;20065;-79
2022/03/30 00:50:16;;;;;;;11.73;2.03;;;;;;;2.80;100.00;100670.81;5012021;28;20056;-77
2022/03/30 00:52:43;;;;;;;9.05;1.50;;;;;;;2.82;100.00;100666.38;5012866;28;20514;-76
2022/03/30 00:55:10;;;;;;;10.13;1.67;;;;;;;2.79;100.00;100682.13;4996896;28;20061;-77
2022/03/30 00:57:37;;;;;;;11.13;1.77;;;;;;;2.71;100.00;100672.25;4992717;28;20092;-77
2022/03/30 01:00:08;;;;;;;18.55;2.10;;;;;;;2.59;100.00;100675.59;4996164;28;20400;-76
2022/03/30 01:02:37;;;;;;;11.57;2.05;;;;;;;2.45;100.00;100660.94;4977622;28;20077;-77
2022/03/30 01:05:03;;;;;;;13.35;2.10;;;;;;;2.48;100.00;100665.91;5015107;28;20041;-77
2022/03/30 01:07:29;;;;;;;14.50;1.52;;;;;;;2.36;100.00;100655.50;4987587;28;20041;-77
2022/03/30 01:09:55;;;;;;;9.27;1.60;;;;;;;2.42;100.00;100662.91;4999044;28;20139;-77
2022/03/30 01:12:21;;;;;;;10.65;1.80;;;;;;;2.43;100.00;100661.94;4982165;28;20049;-79
2022/03/30 01:14:46;;;;;;;10.85;1.65;;;;;;;2.43;100.00;100659.34;4998473;28;20034;-80
2022/03/30 01:17:13;;;;;;;12.07;2.25;;;;;;;2.37;100.00;100657.16;4997953;28;20045;-76
2022/03/30 01:19:38;;;;;;;12.13;1.58;;;;;;;2.38;100.00;100651.91;4977153;28;20045;-78
2022/03/30 01:22:07;;;;;;;11.98;2.22;;;;;;;2.39;100.00;100642.38;5011712;28;20037;-77
2022/03/30 01:24:37;;;;;;;9.38;2.13;;;;;;;2.39;100.00;100647.53;4994980;28;20052;-77
2022/03/30 01:27:03;;;;;;;11.77;1.88;;;;;;;2.48;100.00;100646.97;4999936;28;20102;-76
2022/03/30 01:32:27;;;;;;;11.10;1.73;;;;;;;2.51;100.00;100639.84;4996657;28;20034;-76
2022/03/30 01:34:54;;;;;;;19.13;2.28;;;;;;;2.55;100.00;100631.88;4993334;28;20038;-76
2022/03/30 01:37:20;;;;;;;12.73;1.83;;;;;;;2.45;100.00;100623.84;5015252;28;20046;-77
2022/03/30 01:39:46;;;;;;;8.18;1.75;;;;;;;2.44;100.00;100630.78;4977058;28;20128;-76
2022/03/30 01:42:12;;;;;;;8.50;1.67;;;;;;;2.48;100.00;100629.66;5015050;28;20030;-77
2022/03/30 01:44:38;;;;;;;14.35;1.90;;;;;;;2.49;100.00;100618.41;4981550;28;20061;-76
2022/03/30 01:47:04;;;;;;;10.60;1.58;;;;;;;2.48;100.00;100623.66;5013862;28;20446;-79
2022/03/30 01:49:30;;;;;;;9.20;1.50;;;;;;;2.50;100.00;100620.03;4997697;28;20046;-78
2022/03/30 01:51:58;;;;;;;9.68;1.63;;;;;;;2.54;100.00;100615.50;4997262;28;20369;-77
2022/03/30 01:54:26;;;;;;;14.25;1.98;;;;;;;2.49;100.00;100602.03;5031182;28;20030;-77
2022/03/30 01:56:53;;;;;;;12.65;2.17;;;;;;;2.55;100.00;100606.00;5000681;28;20093;-77
2022/03/30 01:59:19;;;;;;;8.95;1.60;;;;;;;2.55;100.00;100603.41;4997612;28;20042;-78
2022/03/30 02:01:45;;;;;;;9.98;1.98;;;;;;;2.64;100.00;100608.00;5009634;28;20558;-77
2022/03/30 02:04:11;;;;;;;11.70;2.08;;;;;;;2.65;100.00;100609.63;5014228;28;20115;-76
2022/03/30 02:06:37;;;;;;;13.45;1.65;;;;;;;2.60;100.00;100594.41;4984368;28;20060;-76
2022/03/30 02:09:05;;;;;;;12.57;2.10;;;;;;;2.69;100.00;100605.91;4998384;28;20117;-76
2022/03/30 02:11:31;;;;;;;9.88;2.22;;;;;;;2.65;100.00;100599.28;4979897;28;20501;-76
2022/03/30 02:13:57;;;;;;;14.23;2.20;;;;;;;2.56;100.00;100585.16;5002053;28;20037;-77
2022/03/30 02:16:24;;;;;;;13.88;1.98;;;;;;;2.59;100.00;100590.16;4995161;28;20045;-77
2022/03/30 02:18:50;;;;;;;14.70;2.17;;;;;;;2.63;100.00;100596.78;4994022;28;20121;-78
2022/03/30 02:21:16;;;;;;;9.98;1.80;;;;;;;2.60;100.00;100590.97;4994614;28;20041;-77
2022/03/30 02:23:45;;;;;;;13.20;2.58;;;;;;;2.54;100.00;100587.00;4996425;28;20080;-77
2022/03/30 02:26:11;;;;;;;7.95;1.70;;;;;;;2.56;100.00;100603.28;4998456;28;20077;-78
2022/03/30 02:28:36;;;;;;;10.00;1.95;;;;;;;2.56;100.00;100600.69;4977598;28;20038;-79
2022/03/30 02:31:02;;;;;;;9.18;1.90;;;;;;;2.53;100.00;100603.50;4996290;28;20036;-78
2022/03/30 02:33:28;;;;;;;9.70;1.70;;;;;;;2.51;100.00;100589.81;4997716;28;20069;-79
2022/03/30 02:35:53;;;;;;;14.30;2.65;;;;;;;2.57;100.00;100594.59;5014392;28;20547;-78
2022/03/30 02:38:19;;;;;;;10.63;1.73;;;;;;;2.56;100.00;100597.28;5014125;28;20072;-77
2022/03/30 02:40:45;;;;;;;12.80;1.85;;;;;;;2.51;100.00;100595.00;5012520;28;20392;-77
2022/03/30 02:43:11;;;;;;;8.95;1.70;;;;;;;2.55;100.00;100587.88;4997550;28;20030;-79
2022/03/30 02:45:38;;;;;;;10.40;1.70;;;;;;;2.59;100.00;100589.31;4997236;28;20530;-77
2022/03/30 02:48:19;;;;;;;12.45;2.40;;;;;;;2.53;100.00;100583.59;4999524;28;20069;-77
2022/03/30 02:50:51;;;;;;;11.80;1.80;;;;;;;2.55;100.00;100583.50;5008414;28;20033;-79
2022/03/30 02:53:17;;;;;;;9.68;1.77;;;;;;;2.58;100.00;100582.47;5013819;28;20041;-77
2022/03/30 02:55:43;;;;;;;11.75;1.70;;;;;;;2.54;100.00;100579.25;4981875;28;20029;-79
2022/03/30 02:58:10;;;;;;;10.70;1.65;;;;;;;2.58;100.00;100575.56;4994142;28;20029;-77
2022/03/30 03:00:39;;;;;;;15.23;1.80;;;;;;;2.56;100.00;100577.38;5013080;28;20037;-79
2022/03/30 03:03:07;;;;;;;9.85;1.70;;;;;;;2.62;100.00;100578.75;5016288;28;20052;-76
2022/03/30 03:05:33;;;;;;;9.60;1.98;;;;;;;2.63;100.00;100573.47;4982203;28;20092;-77
2022/03/30 03:08:03;;;;;;;12.23;2.20;;;;;;;2.60;100.00;100570.25;5000654;28;20030;-78
2022/03/30 03:10:30;;;;;;;8.75;2.10;;;;;;;2.57;100.00;100570.47;4995961;28;20076;-77
2022/03/30 03:12:56;;;;;;;10.85;1.67;;;;;;;2.58;100.00;100566.94;5017693;28;20116;-77
2022/03/30 03:15:22;;;;;;;10.90;1.95;;;;;;;2.65;100.00;100574.19;5013926;28;20076;-78
2022/03/30 03:17:48;;;;;;;10.55;1.58;;;;;;;2.46;100.00;100551.25;4998509;28;20484;-78
2022/03/30 03:20:14;;;;;;;8.13;1.48;;;;;;;2.58;100.00;100575.56;4980511;28;20097;-77
2022/03/30 03:22:40;;;;;;;12.98;1.83;;;;;;;2.57;100.00;100573.88;5000238;28;20045;-77
2022/03/30 03:25:07;;;;;;;11.57;2.03;;;;;;;2.51;100.00;100563.94;4982389;28;20045;-77
2022/03/30 03:27:33;;;;;;;9.70;1.95;;;;;;;2.51;100.00;100572.53;4981537;28;20045;-78
2022/03/30 03:29:59;;;;;;;10.30;1.73;;;;;;;2.50;100.00;100568.25;5012063;28;20034;-78
2022/03/30 03:32:25;;;;;;;18.58;2.28;;;;;;;2.51;100.00;100566.50;4998099;28;20045;-76
2022/03/30 03:34:52;;;;;;;9.05;1.65;;;;;;;2.58;100.00;100566.94;4997770;28;20034;-78
2022/03/30 03:37:18;;;;;;;8.65;1.67;;;;;;;2.53;100.00;100570.66;5012212;28;20567;-80
2022/03/30 03:39:45;;;;;;;12.65;1.90;;;;;;;2.51;100.00;100564.75;5011556;28;20029;-78
2022/03/30 03:42:11;;;;;;;14.32;2.30;;;;;;;2.48;100.00;100564.13;5015131;28;20038;-78
2022/03/30 03:44:36;;;;;;;10.73;2.10;;;;;;;2.40;100.00;100556.03;5006327;28;20099;-78
2022/03/30 03:47:03;;;;;;;10.93;1.83;;;;;;;2.37;100.00;100556.22;4997821;28;20037;-78
2022/03/30 03:49:29;;;;;;;12.70;1.90;;;;;;;2.43;100.00;100561.84;5025365;28;20112;-77
2022/03/30 03:51:54;;;;;;;11.50;2.03;;;;;;;2.44;100.00;100558.31;4996828;28;20081;-76
2022/03/30 03:54:20;;;;;;;10.40;2.15;;;;;;;2.33;100.00;100548.63;4997404;28;20077;-77
2022/03/30 03:56:46;;;;;;;18.20;1.77;;;;;;;2.32;100.00;100554.75;4997765;28;20030;-77
2022/03/30 03:59:11;;;;;;;9.40;1.80;;;;;;;2.32;100.00;100565.09;4996708;28;20049;-77
2022/03/30 04:01:37;;;;;;;9.23;1.80;;;;;;;2.25;100.00;100550.88;5013174;28;20053;-75
2022/03/30 04:04:03;;;;;;;14.38;1.90;;;;;;;2.28;100.00;100553.28;4995413;28;20072;-75
2022/03/30 04:06:30;;;;;;;13.55;1.88;;;;;;;2.32;100.00;100553.94;4994736;28;20038;-78
2022/03/30 04:08:56;;;;;;;14.90;1.92;;;;;;;2.29;100.00;100546.34;5015081;28;20034;-77
2022/03/30 04:11:22;;;;;;;13.52;2.00;;;;;;;2.32;100.00;100552.16;5013832;28;20042;-79
2022/03/30 04:13:49;;;;;;;12.15;1.80;;;;;;;2.34;100.00;100560.66;4991261;28;20058;-79
2022/03/30 04:16:16;;;;;;;9.82;1.90;;;;;;;2.32;100.00;100561.69;4995156;28;20046;-77
2022/03/30 04:18:42;;;;;;;16.95;2.33;;;;;;;2.26;100.00;100570.69;4980420;28;20061;-77
2022/03/30 04:21:08;;;;;;;13.70;2.13;;;;;;;2.19;100.00;100559.03;4994676;28;20038;-78
2022/03/30 04:23:34;;;;;;;10.63;1.80;;;;;;;2.16;100.00;100566.16;4979851;28;20091;-78
2022/03/30 04:26:00;;;;;;;13.05;1.63;;;;;;;2.10;100.00;100562.22;4992527;28;20054;-78
2022/03/30 04:28:25;;;;;;;12.80;2.28;;;;;;;2.03;100.00;100561.75;5012464;28;20042;-77
2022/03/30 04:30:51;;;;;;;11.27;1.70;;;;;;;2.07;100.00;100558.06;4996326;28;20571;-78
2022/03/30 04:33:16;;;;;;;11.85;2.20;;;;;;;2.02;100.00;100569.63;5010665;28;20046;-79
2022/03/30 04:35:42;;;;;;;9.13;1.80;;;;;;;1.97;100.00;100556.16;4994959;28;20025;-75
2022/03/30 04:38:07;;;;;;;6.75;1.60;;;;;;;1.90;100.00;100556.53;5011219;28;20132;-79
2022/03/30 04:40:33;;;;;;;6.20;1.63;;;;;;;1.87;100.00;100555.88;4992987;28;20731;-79
2022/03/30 04:42:59;;;;;;;8.98;1.73;;;;;;;1.90;100.00;100558.25;5006868;28;20168;-77
2022/03/30 04:45:24;;;;;;;8.55;1.80;;;;;;;1.87;100.00;100556.72;4987506;28;20046;-79
2022/03/30 04:47:53;;;;;;;13.75;2.10;;;;;;;1.88;100.00;100558.34;5014237;28;20037;-79
2022/03/30 04:50:19;;;;;;;11.35;1.90;;;;;;;1.88;100.00;100554.94;4994036;28;20120;-76
2022/03/30 04:52:44;;;;;;;15.95;2.40;;;;;;;1.83;100.00;100552.66;5009236;28;20034;-75
2022/03/30 04:55:10;;;;;;;11.77;2.35;;;;;;;1.79;100.00;100564.13;5009527;28;20034;-78
2022/03/30 04:57:37;;;;;;;11.95;2.15;;;;;;;1.72;100.00;100555.91;5008888;28;20044;-77
2022/03/30 05:00:05;;;;;;;12.43;2.60;;;;;;;1.78;100.00;100561.63;5012599;28;20025;-78
2022/03/30 05:02:33;;;;;;;13.43;2.92;;;;;;;1.79;100.00;100558.94;4993327;28;20048;-76
2022/03/30 05:04:59;;;;;;;12.30;2.58;;;;;;;1.77;100.00;100559.94;5012171;28;20060;-78
2022/03/30 05:07:25;;;;;;;11.13;2.15;;;;;;;1.78;100.00;100559.88;4990233;28;20392;-78
2022/03/30 05:09:51;;;;;;;17.05;2.75;;;;;;;1.74;100.00;100561.81;4991391;28;20041;-77
2022/03/30 05:12:18;;;;;;;12.38;2.38;;;;;;;1.70;100.00;100562.09;5008535;28;20045;-78
2022/03/30 05:14:44;;;;;;;12.13;2.30;;;;;;;1.72;100.00;100568.84;4993159;28;20072;-77
2022/03/30 05:17:10;;;;;;;19.10;2.60;;;;;;;1.74;100.00;100555.81;4994137;28;20084;-76
2022/03/30 05:19:37;;;;;;;12.65;2.50;;;;;;;1.71;100.00;100558.56;4977557;28;20646;-76
2022/03/30 05:22:06;;;;;;;11.45;2.58;;;;;;;1.68;100.00;100558.78;4992876;28;20142;-77
2022/03/30 05:24:32;;;;;;;11.10;2.42;;;;;;;1.71;100.00;100562.00;4992888;28;20035;-81
2022/03/30 05:26:57;;;;;;;13.32;2.80;;;;;;;1.68;100.00;100557.03;4993526;28;20026;-79
2022/03/30 05:29:23;;;;;;;14.32;3.13;;;;;;;1.70;100.00;100555.16;5004510;28;20503;-80
2022/03/30 05:31:49;;;;;;;11.80;2.70;;;;;;;1.75;100.00;100549.69;4994260;28;20442;-77
2022/03/30 05:34:15;;;;;;;10.57;2.70;;;;;;;1.79;100.00;100551.19;4990975;28;20532;-81
2022/03/30 05:36:40;;;;;;;17.85;2.78;;;;;;;1.79;100.00;100556.38;4985255;28;20111;-80
2022/03/30 05:39:06;;;;;;;11.63;2.63;;;;;;;1.72;100.00;100560.25;5011616;28;20030;-77
2022/03/30 05:41:33;;;;;;;17.80;2.65;;;;;;;1.72;100.00;100547.31;5007405;28;20552;-78
2022/03/30 05:43:59;;;;;;;10.32;2.67;;;;;;;1.71;100.00;100551.66;4994522;28;20037;-78
2022/03/30 05:46:25;;;;;;;21.85;3.35;;;;;;;1.80;100.00;100559.78;5009355;28;20030;-79
2022/03/30 05:48:50;;;;;;;17.67;3.10;;;;;;;1.67;100.00;100559.69;5009966;28;20037;-79
2022/03/30 05:51:16;;;;;;;16.65;2.88;;;;;;;1.65;100.00;100548.63;4992472;28;20042;-79
2022/03/30 05:53:42;;;;;;;18.88;3.20;;;;;;;1.77;100.00;100549.59;5010781;28;20026;-79
2022/03/30 05:56:08;;;;;;;15.07;3.08;;;;;;;1.76;100.00;100556.53;4995908;28;20030;-79
2022/03/30 05:58:33;;;;;;;13.05;3.10;;;;;;;1.77;100.00;100552.19;5012033;28;20061;-79
2022/03/30 06:00:59;;;;;;;18.50;3.67;;;;;;;1.80;100.00;100557.19;5007789;28;20080;-78
2022/03/30 06:03:24;;;;;;;16.65;4.10;;;;;;;1.78;100.00;100561.63;4992941;28;20041;-79
2022/03/30 06:05:51;;;;;;;16.02;3.90;;;;;;;1.78;100.00;100553.88;5011768;28;20044;-80
2022/03/30 06:08:17;;;;;;;15.32;3.35;;;;;;;1.80;100.00;100557.19;4996902;28;20509;-80
2022/03/30 06:10:43;;;;;;;14.40;3.40;;;;;;;1.88;100.00;100557.53;5010626;28;20480;-79
2022/03/30 06:13:09;;;;;;;13.13;4.15;;;;;;;1.95;100.00;100556.22;4996286;28;20048;-78
2022/03/30 06:15:38;;;;;;;13.48;3.88;;;;;;;2.04;100.00;100560.84;4995760;28;20038;-78
2022/03/30 06:18:10;;;;;;;14.90;4.03;;;;;;;2.12;100.00;100557.75;5013175;28;20053;-78
2022/03/30 06:20:35;;;;;;;16.20;3.75;;;;;;;2.06;100.00;100558.16;4978609;28;20113;-80
2022/03/30 06:23:02;;;;;;;16.48;4.18;;;;;;;2.13;100.00;100552.50;4993909;28;20046;-78
2022/03/30 06:25:27;;;;;;;13.07;3.40;;;;;;;2.17;100.00;100554.88;4990543;28;20031;-78
2022/03/30 06:27:53;;;;;;;17.67;3.40;;;;;;;2.26;100.00;100557.72;4995279;28;20037;-79
2022/03/30 06:30:19;;;;;;;14.75;4.20;;;;;;;2.28;100.00;100561.06;4995814;28;20062;-79
2022/03/30 06:32:49;;;;;;;13.52;3.50;;;;;;;2.38;100.00;100565.66;4993704;28;20065;-79
2022/03/30 06:35:19;;;;;;;13.18;3.20;;;;;;;2.36;100.00;100562.31;5026968;28;20038;-79
2022/03/30 06:37:46;;;;;;;21.50;3.80;;;;;;;2.30;100.00;100566.13;4984811;28;20026;-76
2022/03/30 06:40:14;;;;;;;13.25;3.28;;;;;;;2.31;100.00;100565.19;5008380;28;20038;-78
2022/03/30 06:42:41;;;;;;;16.08;3.00;;;;;;;2.36;100.00;100562.31;4980492;28;20121;-77
2022/03/30 06:45:08;;;;;;;12.30;2.95;;;;;;;2.32;100.00;100567.69;4994086;28;20125;-78
2022/03/30 06:47:34;;;;;;;17.25;3.67;;;;;;;2.18;100.00;100566.91;4978492;28;20027;-78
2022/03/30 06:50:00;;;;;;;9.40;2.58;;;;;;;2.11;100.00;100572.47;5004585;28;20030;-78
2022/03/30 06:52:26;;;;;;;12.48;3.15;;;;;;;2.00;100.00;100561.09;4979913;28;20053;-78
2022/03/30 06:54:52;;;;;;;11.50;3.20;;;;;;;2.09;100.00;100576.06;5011348;28;20022;-78
2022/03/30 06:57:20;;;;;;;10.85;3.58;;;;;;;2.03;100.00;100568.69;4997081;28;20041;-78
2022/03/30 06:59:46;;;;;;;14.60;3.40;;;;;;;2.04;100.00;100571.19;5007588;28;20365;-77
2022/03/30 07:02:12;;;;;;;17.30;3.63;;;;;;;2.08;100.00;100562.31;4996405;28;20064;-79
2022/03/30 07:04:38;;;;;;;13.52;2.78;;;;;;;2.28;100.00;100562.78;4980216;28;20025;-79
2022/03/30 07:12:33;;;;;;;12.57;2.90;;;;;;;2.60;100.00;100573.69;5012062;28;20029;-80
2022/03/30 07:15:00;;;;;;;10.73;2.45;;;;;;;2.64;100.00;100561.38;4994685;23;20437;-81
2022/03/30 07:17:27;;;;;;;11.25;2.28;;;;;;;2.64;100.00;100549.25;4994239;28;20098;-79
2022/03/30 07:19:53;;;;;;;9.25;2.25;;;;;;;2.79;100.00;100562.09;4998259;28;20065;-80
2022/03/30 07:22:18;;;;;;;9.07;2.15;;;;;;;2.85;100.00;100559.13;4996735;28;20038;-79
2022/03/30 07:24:44;;;;;;;9.43;2.30;;;;;;;2.79;100.00;100556.94;4975550;28;20422;-79
2022/03/30 07:27:10;;;;;;;8.77;2.15;;;;;;;2.82;100.00;100547.19;5015069;28;20038;-80
2022/03/30 07:29:36;;;;;;;14.55;2.33;;;;;;;2.81;100.00;100557.69;5002278;28;20132;-80
2022/03/30 07:32:03;;;;;;;9.35;2.38;;;;;;;2.97;100.00;100560.09;4994498;28;20029;-79
2022/03/30 07:34:29;;;;;;;11.18;2.30;;;;;;;2.99;100.00;100546.09;4998539;28;20040;-80
2022/03/30 07:36:56;;;;;;;9.18;1.90;;;;;;;3.04;100.00;100554.38;5009124;28;20018;-79
2022/03/30 07:39:21;;;;;;;11.07;2.28;;;;;;;3.06;100.00;100557.69;5002455;28;20049;-80
2022/03/30 07:41:47;;;;;;;9.57;2.55;;;;;;;3.09;100.00;100552.31;5034222;28;20033;-80
2022/03/30 07:44:13;;;;;;;11.20;2.35;;;;;;;3.11;100.00;100552.22;4997397;28;20044;-79
2022/03/30 07:46:39;;;;;;;11.75;2.17;;;;;;;3.19;100.00;100559.47;5027341;28;20029;-79
2022/03/30 07:49:04;;;;;;;11.27;2.58;;;;;;;3.23;100.00;100559.16;5031770;28;20033;-79
2022/03/30 07:51:30;;;;;;;13.32;2.63;;;;;;;3.17;100.00;100558.75;5017603;28;20096;-80
2022/03/30 07:53:56;;;;;;;11.13;2.15;;;;;;;3.17;100.00;100551.81;4982969;28;20560;-81
2022/03/30 07:56:22;;;;;;;8.90;2.53;;;;;;;3.23;100.00;100558.34;4998246;28;20040;-81
2022/03/30 07:58:49;;;;;;;10.65;2.00;;;;;;;3.31;100.00;100559.50;4996368;28;20026;-81
2022/03/30 08:01:16;;;;;;;10.90;2.33;;;;;;;3.41;100.00;100557.09;5016416;28;20029;-80
2022/03/30 08:03:44;;;;;;;11.20;2.05;;;;;;;3.41;100.00;100557.09;5012205;28;20033;-81
2022/03/30 08:06:10;;;;;;;12.13;2.50;;;;;;;3.47;100.00;100548.88;4983304;28;20038;-81
2022/03/30 08:08:36;;;;;;;10.35;2.45;;;;;;;3.45;100.00;100542.16;4979721;28;20038;-81
2022/03/30 08:11:02;;;;;;;9.55;2.25;;;;;;;3.47;100.00;100555.84;5017446;28;20109;-80
2022/03/30 08:13:27;;;;;;;9.57;2.10;;;;;;;3.47;100.00;100555.84;4982142;28;20116;-79
2022/03/30 08:15:53;;;;;;;10.23;2.15;;;;;;;3.38;100.00;100541.75;5016365;28;20030;-79
2022/03/30 08:18:18;;;;;;;9.90;2.00;;;;;;;3.40;100.00;100545.06;5018279;28;20065;-78
2022/03/30 08:23:28;;;;;;;7.32;1.75;;;;;;;3.46;100.00;100551.56;5023932;28;20027;-79
2022/03/30 08:25:54;;;;;;;9.52;2.50;;;;;;;3.56;100.00;100547.44;4999231;28;20037;-79
2022/03/30 08:28:19;;;;;;;8.50;2.20;;;;;;;3.75;100.00;100546.13;5023466;28;20037;-80
2022/03/30 08:30:45;;;;;;;8.38;2.42;;;;;;;3.81;100.00;100550.91;4993505;28;20037;-80
2022/03/30 08:33:11;;;;;;;8.02;1.95;;;;;;;3.83;100.00;100547.25;5015586;28;20025;-80
2022/03/30 08:35:37;;;;;;;7.35;2.22;;;;;;;3.82;100.00;100542.19;5012745;28;20030;-81
2022/03/30 08:38:03;;;;;;;8.80;2.50;;;;;;;3.80;100.00;100552.66;5012062;28;20388;-79
2022/03/30 08:40:28;;;;;;;5.40;1.95;;;;;;;3.70;100.00;100544.69;5009746;28;20049;-79
2022/03/30 08:42:55;;;;;;;10.88;2.38;;;;;;;3.67;100.00;100546.66;5007398;28;20471;-80
2022/03/30 08:45:21;;;;;;;7.18;1.95;;;;;;;3.80;100.00;100551.84;4987892;28;20037;-78
2022/03/30 08:47:48;;;;;;;5.32;1.75;;;;;;;3.77;100.00;100552.91;4989725;28;20443;-79
2022/03/30 08:50:13;;;;;;;6.32;1.90;;;;;;;3.62;100.00;100546.19;4990874;28;20040;-78
2022/03/30 08:52:39;;;;;;;11.43;2.13;;;;;;;3.70;100.00;100546.47;5000108;28;20124;-79
2022/03/30 08:55:05;;;;;;;7.50;1.90;;;;;;;3.77;100.00;100539.06;5006688;28;20041;-80
2022/03/30 08:57:31;;;;;;;9.20;2.53;;;;;;;3.70;100.00;100539.50;4997585;28;20443;-79
2022/03/30 09:00:04;;;;;;;8.75;2.03;;;;;;;3.81;100.00;100551.75;5001627;28;20040;-79
2022/03/30 09:02:38;;;;;;;5.47;1.98;;;;;;;3.79;100.00;100548.41;5022090;28;20818;-79
2022/03/30 09:05:25;;;;;;;4.95;2.10;;;;;;;3.89;100.00;100556.38;5001113;28;20034;-79
2022/03/30 09:07:54;;;;;;;8.98;2.50;;;;;;;4.05;100.00;100553.53;5005097;28;20056;-79
2022/03/30 09:10:23;;;;;;;8.43;2.45;;;;;;;4.22;100.00;100555.75;5011448;28;20038;-79
2022/03/30 09:12:50;;;;;;;10.32;2.67;;;;;;;4.14;100.00;100552.06;5009212;28;20065;-76
2022/03/30 09:15:17;;;;;;;10.07;2.22;;;;;;;3.96;100.00;100554.19;5011660;28;20038;-81
2022/03/30 09:17:43;;;;;;;7.68;2.40;;;;;;;3.95;100.00;100553.34;5014338;28;20637;-79
2022/03/30 09:20:14;;;;;;;7.70;2.33;;;;;;;3.92;100.00;100558.78;4994575;28;20068;-79
2022/03/30 09:22:44;;;;;;;10.80;2.40;;;;;;;4.01;100.00;100550.34;5009424;28;20069;-79
2022/03/30 09:25:11;;;;;;;3.90;2.10;;;;;;;4.05;100.00;100556.97;4998675;28;20034;-79
2022/03/30 09:27:41;;;;;;;8.23;2.50;;;;;;;3.99;100.00;100554.78;5013602;28;20124;-80
2022/03/30 09:30:09;;;;;;;7.45;2.50;;;;;;;3.96;100.00;100549.84;5012267;28;20383;-79
2022/03/30 09:32:36;;;;;;;9.10;2.35;;;;;;;3.98;100.00;100547.94;5007440;28;20030;-79
2022/03/30 09:35:02;;;;;;;7.57;2.40;;;;;;;4.02;100.00;100548.56;5011238;28;20026;-79
2022/03/30 09:37:27;;;;;;;5.85;2.38;;;;;;;4.02;100.00;100540.78;4992464;28;20515;-80
2022/03/30 09:39:54;;;;;;;9.77;2.03;;;;;;;4.06;100.00;100543.03;5015554;28;20033;-80
2022/03/30 09:42:20;;;;;;;6.50;1.90;;;;;;;4.19;100.00;100539.56;5018148;28;20038;-80
2022/03/30 09:44:53;;;;;;;8.18;1.98;;;;;;;4.21;100.00;100538.50;5033448;28;20037;-79
2022/03/30 09:47:23;;;;;;;4.47;1.77;;;;;;;4.35;100.00;100545.34;4981080;28;20041;-80
2022/03/30 09:49:54;;;;;;;8.52;1.90;;;;;;;4.36;100.00;100530.56;5033556;28;20076;-80
2022/03/30 09:52:28;;;;;;;7.50;1.88;;;;;;;4.48;100.00;100535.69;4998635;28;20111;-79
2022/03/30 09:54:55;;;;;;;7.60;2.13;;;;;;;4.46;100.00;100541.94;5012976;28;20026;-79
2022/03/30 09:57:28;;;;;;;9.30;1.83;;;;;;;4.60;100.00;100540.94;5008208;28;20069;-80
2022/03/30 09:59:58;;;;;;;7.50;1.95;;;;;;;4.71;100.00;100527.13;5032494;28;20033;-79
2022/03/30 10:02:29;;;;;;;12.48;2.13;;;;;;;4.69;100.00;100524.69;5015814;28;20045;-81
2022/03/30 10:04:56;;;;;;;4.13;1.52;;;;;;;4.65;100.00;100531.00;5027809;28;20038;-82
2022/03/30 10:07:22;;;;;;;6.45;1.80;;;;;;;4.36;100.00;100530.56;5017423;28;20673;-79
2022/03/30 10:09:49;;;;;;;9.27;2.10;;;;;;;4.40;100.00;100527.63;5016201;28;20045;-79
2022/03/30 10:12:17;;;;;;;5.57;1.75;;;;;;;4.61;100.00;100538.22;5001770;28;20029;-81
2022/03/30 10:14:45;;;;;;;4.13;1.50;;;;;;;4.62;100.00;100520.88;4987886;28;20033;-78
2022/03/30 10:17:12;;;;;;;5.05;1.40;;;;;;;4.72;100.00;100519.22;5018998;28;20033;-80
2022/03/30 10:19:40;;;;;;;6.10;1.58;;;;;;;4.68;100.00;100518.63;5001831;28;20022;-80
2022/03/30 10:22:38;;;;;;;6.38;1.95;;;;;;;4.70;100.00;100513.31;5017909;28;20038;-79
2022/03/30 10:25:15;;;;;;;6.72;1.23;;;;;;;4.65;100.00;100520.63;4996454;28;20064;-80
2022/03/30 10:28:07;;;;;;;5.57;1.70;;;;;;;4.61;100.00;100514.00;5001838;28;20116;-79
2022/03/30 10:30:33;;;;;;;3.72;1.40;;;;;;;4.28;100.00;100518.16;5000553;28;20384;-79
2022/03/30 10:33:01;;;;;;;7.25;1.70;;;;;;;4.33;100.00;100512.59;4991685;28;20045;-79
2022/03/30 10:35:37;;;;;;;4.60;1.40;;;;;;;4.66;100.00;100515.31;5014107;28;20782;-76
2022/03/30 10:38:03;;;;;;;3.47;1.30;;;;;;;4.77;100.00;100511.09;5012410;28;20080;-77
2022/03/30 10:40:29;;;;;;;4.07;1.88;;;;;;;4.82;100.00;100506.38;5012078;28;20033;-78
2022/03/30 10:42:57;;;;;;;5.10;1.50;;;;;;;4.86;100.00;100510.44;5008506;28;20034;-79
2022/03/30 10:45:28;;;;;;;5.47;1.38;;;;;;;4.87;100.00;100502.50;4995315;28;20050;-78
2022/03/30 10:48:23;;;;;;;4.18;1.80;;;;;;;4.92;100.00;100496.13;5010710;28;20026;-79
2022/03/30 10:50:58;;;;;;;3.13;1.42;;;;;;;4.90;100.00;100493.66;5009101;28;20104;-78
2022/03/30 10:53:29;;;;;;;5.65;1.73;;;;;;;5.00;100.00;100488.56;5014204;28;20427;-79
2022/03/30 10:56:15;;;;;;;4.00;1.30;;;;;;;5.28;100.00;100482.09;5016133;28;20037;-78
2022/03/30 10:59:01;;;;;;;3.13;1.30;;;;;;;5.26;100.00;100487.41;4991995;28;20512;-78
2022/03/30 11:01:34;;;;;;;2.60;1.20;;;;;;;4.86;99.50;100484.44;4985520;28;20149;-78
2022/03/30 11:04:16;;;;;;;2.92;1.35;;;;;;;5.14;100.00;100483.16;4980799;28;20025;-79
2022/03/30 11:06:45;;;;;;;5.68;1.27;;;;;;;5.21;96.94;100478.31;5027448;28;20381;-79
2022/03/30 11:09:20;;;;;;;7.38;1.40;;;;;;;5.12;99.65;100481.59;5007588;28;20415;-80
2022/03/30 11:11:59;;;;;;;4.80;1.48;;;;;;;5.22;99.16;100485.19;5010148;28;20038;-78
2022/03/30 11:14:32;;;;;;;2.88;1.17;;;;;;;5.23;97.73;100479.00;5006557;28;20035;-79
2022/03/30 11:17:00;;;;;;;3.45;1.10;;;;;;;4.90;100.00;100474.59;4996378;28;20073;-79
2022/03/30 11:19:29;;;;;;;4.50;1.13;;;;;;;5.17;100.00;100482.09;5010024;28;20045;-79
2022/03/30 11:22:30;;;;;;;7.90;1.55;;;;;;;5.05;100.00;100474.28;5014082;28;20030;-79
2022/03/30 11:25:10;;;;;;;4.45;1.20;;;;;;;5.41;96.67;100484.56;5000086;28;20034;-79
2022/03/30 11:27:37;;;;;;;4.45;1.40;;;;;;;5.28;98.08;100476.88;4976908;28;20456;-78
2022/03/30 11:30:16;;;;;;;4.32;1.80;;;;;;;5.32;97.48;100480.09;4983589;28;20120;-77
2022/03/30 11:32:51;;;;;;;3.58;1.50;;;;;;;5.19;97.30;100481.00;4994890;28;20099;-76
2022/03/30 11:35:19;;;;;;;3.45;1.10;;;;;;;5.36;97.90;100476.28;5009287;28;20034;-78